createdAt,value
2022-08-19T00:01:59.630Z,57.17
2022-08-19T00:04:31.403Z,56.85
2022-08-19T00:07:00.472Z,57.24
2022-08-19T00:09:30.058Z,56.43
2022-08-19T00:12:00.962Z,56.20
2022-08-19T00:14:32.686Z,56.43
2022-08-19T00:17:03.950Z,56.11
2022-08-19T00:19:33.132Z,56.31
2022-08-19T00:22:01.620Z,56.38
2022-08-19T00:24:30.747Z,56.49
2022-08-19T00:27:26.144Z,56.28
2022-08-19T00:29:52.598Z,56.47
2022-08-19T00:32:21.890Z,56.33
2022-08-19T00:34:50.344Z,56.58
2022-08-19T00:37:19.049Z,56.08
2022-08-19T00:39:49.242Z,56.38
2022-08-19T00:42:19.753Z,56.41
2022-08-19T00:44:48.680Z,56.51
2022-08-19T00:47:17.140Z,56.38
2022-08-19T00:49:52.100Z,56.50
2022-08-19T00:52:23.928Z,56.58
2022-08-19T00:54:53.624Z,56.88
2022-08-19T00:57:27.610Z,56.75
2022-08-19T01:00:01.678Z,56.66
2022-08-19T01:02:33.538Z,56.43
2022-08-19T01:05:02.944Z,56.49
2022-08-19T01:07:35.915Z,56.39
2022-08-19T01:10:09.532Z,56.75
2022-08-19T01:12:39.662Z,56.85
2022-08-19T01:15:11.228Z,56.63
2022-08-19T01:17:41.118Z,56.74
2022-08-19T01:20:14.001Z,56.84
2022-08-19T01:22:46.604Z,56.67
2022-08-19T01:25:16.699Z,56.38
2022-08-19T01:27:49.481Z,56.91
2022-08-19T01:30:25.190Z,56.82
2022-08-19T01:32:54.601Z,56.62
2022-08-19T01:35:24.532Z,56.91
2022-08-19T01:37:56.917Z,56.61
2022-08-19T01:40:28.124Z,56.85
2022-08-19T01:42:56.666Z,56.65
2022-08-19T01:45:27.910Z,56.77
2022-08-19T01:48:02.132Z,56.50
2022-08-19T01:50:32.498Z,56.43
2022-08-19T01:53:06.530Z,56.34
2022-08-19T01:55:40.905Z,56.43
2022-08-19T01:58:13.466Z,56.67
2022-08-19T02:00:42.754Z,56.49
2022-08-19T02:03:12.276Z,56.12
2022-08-19T02:05:41.614Z,56.52
2022-08-19T02:08:12.290Z,56.43
2022-08-19T02:10:42.796Z,56.86
2022-08-19T02:13:11.825Z,56.94
2022-08-19T02:15:40.468Z,56.92
2022-08-19T02:18:09.369Z,56.92
2022-08-19T02:20:39.494Z,56.86
2022-08-19T02:23:13.963Z,57.02
2022-08-19T02:25:47.349Z,56.79
2022-08-19T02:28:18.762Z,57.01
2022-08-19T02:30:48.906Z,56.94
2022-08-19T02:33:18.401Z,57.15
2022-08-19T02:35:48.000Z,56.87
2022-08-19T02:38:28.389Z,57.07
2022-08-19T02:41:00.616Z,57.11
2022-08-19T02:43:29.811Z,56.88
2022-08-19T02:46:03.035Z,56.95
2022-08-19T02:48:33.832Z,57.30
2022-08-19T02:51:02.478Z,56.97
2022-08-19T02:53:31.424Z,56.84
2022-08-19T02:56:01.279Z,56.86
2022-08-19T02:58:29.849Z,57.20
2022-08-19T03:00:59.382Z,56.98
2022-08-19T03:03:28.104Z,56.80
2022-08-19T03:06:07.092Z,57.05
2022-08-19T03:08:35.528Z,56.88
2022-08-19T03:11:05.977Z,56.73
2022-08-19T03:13:34.574Z,56.94
2022-08-19T03:16:06.488Z,56.24
2022-08-19T03:18:34.918Z,56.72
2022-08-19T03:21:03.815Z,56.61
2022-08-19T03:23:32.418Z,56.99
2022-08-19T03:26:05.649Z,56.64
2022-08-19T03:28:51.791Z,56.71
2022-08-19T03:31:43.488Z,57.15
2022-08-19T03:34:20.236Z,56.83
2022-08-19T03:36:49.405Z,56.82
2022-08-19T03:39:18.415Z,56.76
2022-08-19T03:41:48.779Z,56.78
2022-08-19T03:44:21.594Z,56.66
2022-08-19T03:46:51.482Z,56.97
2022-08-19T03:49:21.067Z,56.45
2022-08-19T03:51:51.210Z,56.59
2022-08-19T03:54:21.702Z,56.32
2022-08-19T03:56:51.691Z,56.32
2022-08-19T03:59:26.035Z,56.59
2022-08-19T04:01:55.261Z,56.64
2022-08-19T04:04:24.097Z,56.40
2022-08-19T04:06:53.630Z,56.60
2022-08-19T04:09:22.565Z,56.70
2022-08-19T04:11:54.711Z,56.02
2022-08-19T04:14:26.610Z,56.25
2022-08-19T04:16:55.223Z,56.08
2022-08-19T04:19:24.299Z,55.91
2022-08-19T04:21:54.800Z,55.85
2022-08-19T04:24:24.410Z,55.91
2022-08-19T04:26:53.424Z,55.95
2022-08-19T04:29:26.077Z,57.34
2022-08-19T04:31:56.465Z,57.64
2022-08-19T04:34:27.303Z,58.20
2022-08-19T04:36:58.106Z,58.27
2022-08-19T04:39:49.181Z,61.43
2022-08-19T04:42:36.845Z,61.63
2022-08-19T04:45:09.504Z,62.36
2022-08-19T04:47:46.801Z,63.39
2022-08-19T04:50:20.089Z,64.15
2022-08-19T04:52:48.640Z,65.19
2022-08-19T04:55:17.661Z,63.46
2022-08-19T04:57:46.213Z,63.03
2022-08-19T05:00:16.330Z,63.38
2022-08-19T05:02:45.137Z,64.00
2022-08-19T05:05:14.217Z,63.82
2022-08-19T05:07:43.061Z,63.91
2022-08-19T05:10:12.561Z,63.34
2022-08-19T05:12:41.297Z,63.70
2022-08-19T05:15:10.873Z,64.37
2022-08-19T05:18:01.142Z,63.80
2022-08-19T05:20:47.306Z,64.00
2022-08-19T05:23:22.038Z,63.88
2022-08-19T05:25:52.496Z,64.38
2022-08-19T05:28:21.542Z,66.01
2022-08-19T05:30:51.817Z,66.64
2022-08-19T05:33:21.625Z,65.63
2022-08-19T05:35:51.063Z,65.18
2022-08-19T05:38:19.921Z,64.77
2022-08-19T05:40:50.362Z,64.70
2022-08-19T05:43:18.854Z,64.72
2022-08-19T05:45:47.386Z,65.10
2022-08-19T05:48:15.908Z,65.46
2022-08-19T05:50:46.373Z,65.06
2022-08-19T05:53:17.286Z,65.12
2022-08-19T05:55:45.835Z,65.11
2022-08-19T05:58:14.428Z,65.46
2022-08-19T06:00:45.229Z,65.65
2022-08-19T06:03:16.811Z,65.87
2022-08-19T06:05:51.968Z,66.16
2022-08-19T06:08:34.304Z,66.05
2022-08-19T06:11:21.697Z,65.88
2022-08-19T06:13:59.641Z,65.94
2022-08-19T06:16:29.174Z,67.78
2022-08-19T06:18:58.899Z,68.56
2022-08-19T06:21:30.324Z,69.23
2022-08-19T06:23:59.783Z,67.74
2022-08-19T06:26:28.624Z,67.33
2022-08-19T06:28:57.103Z,67.22
2022-08-19T06:31:29.515Z,67.57
2022-08-19T06:33:57.984Z,66.83
2022-08-19T06:36:32.673Z,66.72
2022-08-19T06:39:01.921Z,66.61
2022-08-19T06:41:31.316Z,66.88
2022-08-19T06:43:59.841Z,68.62
2022-08-19T06:46:28.637Z,67.63
2022-08-19T06:48:57.440Z,67.34
2022-08-19T06:51:26.191Z,67.45
2022-08-19T06:54:03.168Z,66.94
2022-08-19T06:56:35.588Z,67.46
2022-08-19T06:59:05.143Z,67.58
2022-08-19T07:01:38.382Z,68.31
2022-08-19T07:04:08.207Z,67.64
2022-08-19T07:06:41.666Z,68.37
2022-08-19T07:09:18.640Z,67.85
2022-08-19T07:11:48.422Z,67.99
2022-08-19T07:14:20.053Z,67.87
2022-08-19T07:16:50.360Z,67.71
2022-08-19T07:19:20.748Z,67.68
2022-08-19T07:21:49.704Z,68.17
2022-08-19T07:24:20.675Z,68.22
2022-08-19T07:26:51.825Z,69.28
2022-08-19T07:29:25.631Z,70.41
2022-08-19T07:32:00.160Z,69.87
2022-08-19T07:34:30.698Z,70.47
2022-08-19T07:36:59.942Z,70.15
2022-08-19T07:39:31.621Z,69.29
2022-08-19T07:42:02.810Z,69.06
2022-08-19T07:44:31.581Z,69.21
2022-08-19T07:47:01.625Z,70.07
2022-08-19T07:49:30.667Z,70.34
2022-08-19T07:52:02.253Z,70.44
2022-08-19T07:54:35.205Z,71.87
2022-08-19T07:57:04.607Z,72.31
2022-08-19T07:59:33.507Z,71.76
2022-08-19T08:02:03.286Z,70.57
2022-08-19T08:04:50.315Z,70.12
2022-08-19T08:07:36.259Z,69.54
2022-08-19T08:10:20.430Z,67.33
2022-08-19T08:13:01.858Z,66.50
2022-08-19T08:15:43.088Z,64.87
2022-08-19T08:18:12.617Z,64.89
2022-08-19T08:20:43.489Z,64.92
2022-08-19T08:23:24.715Z,65.78
2022-08-19T08:25:56.351Z,65.24
2022-08-19T08:28:25.582Z,66.60
2022-08-19T08:30:55.598Z,67.98
2022-08-19T08:33:33.112Z,68.49
2022-08-19T08:36:03.805Z,68.88
2022-08-19T08:38:39.044Z,68.41
2022-08-19T08:41:20.292Z,68.53
2022-08-19T08:43:51.925Z,68.35
2022-08-19T08:46:31.399Z,68.56
2022-08-19T08:49:06.583Z,68.63
2022-08-19T08:54:15.979Z,68.59
2022-08-19T08:56:46.998Z,67.26
2022-08-19T08:59:24.916Z,66.69
2022-08-19T09:01:53.472Z,66.28
2022-08-19T09:04:23.498Z,65.74
2022-08-19T09:06:57.285Z,65.98
2022-08-19T09:09:33.234Z,66.31
2022-08-19T09:12:11.693Z,66.30
2022-08-19T09:14:52.162Z,65.54
2022-08-19T09:17:31.625Z,65.93
2022-08-19T09:20:05.739Z,65.65
2022-08-19T09:22:39.293Z,65.80
2022-08-19T09:25:09.914Z,65.92
2022-08-19T09:27:44.046Z,65.52
2022-08-19T09:30:17.512Z,65.50
2022-08-19T09:32:46.533Z,65.59
2022-08-19T09:35:16.431Z,65.47
2022-08-19T09:37:46.027Z,65.39
2022-08-19T09:40:15.425Z,65.40
2022-08-19T09:42:49.943Z,64.88
2022-08-19T09:45:22.756Z,64.20
2022-08-19T09:47:54.130Z,64.25
2022-08-19T09:50:24.371Z,63.99
2022-08-19T09:52:57.364Z,63.66
2022-08-19T09:55:31.455Z,63.41
2022-08-19T09:58:03.672Z,63.86
2022-08-19T10:00:32.892Z,62.04
2022-08-19T10:03:01.394Z,63.14
2022-08-19T10:05:50.134Z,62.81
2022-08-19T10:08:20.648Z,63.15
2022-08-19T10:10:50.255Z,62.78
2022-08-19T10:13:26.457Z,62.58
2022-08-19T10:15:57.842Z,61.93
2022-08-19T10:18:27.182Z,62.64
2022-08-19T10:21:08.521Z,62.54
2022-08-19T10:23:38.832Z,63.16
2022-08-19T10:26:08.381Z,62.55
2022-08-19T10:28:39.194Z,63.42
2022-08-19T10:31:09.228Z,63.29
2022-08-19T10:33:53.319Z,64.17
2022-08-19T10:36:24.546Z,63.22
2022-08-19T10:38:56.971Z,63.98
2022-08-19T10:41:28.841Z,63.64
2022-08-19T10:44:04.178Z,64.16
2022-08-19T10:46:34.204Z,64.50
2022-08-19T10:49:03.729Z,64.55
2022-08-19T10:51:51.313Z,64.50
2022-08-19T10:54:31.384Z,64.66
2022-08-19T10:57:01.251Z,64.56
2022-08-19T10:59:35.821Z,64.43
2022-08-19T11:02:06.102Z,64.66
2022-08-19T11:04:35.731Z,64.59
2022-08-19T11:07:05.494Z,63.68
2022-08-19T11:09:34.625Z,64.15
2022-08-19T11:12:04.894Z,63.98
2022-08-19T11:14:36.226Z,63.99
2022-08-19T11:17:05.589Z,64.38
2022-08-19T11:19:34.431Z,64.47
2022-08-19T11:22:04.419Z,64.03
2022-08-19T11:24:33.728Z,63.48
2022-08-19T11:27:07.322Z,63.35
2022-08-19T11:29:37.909Z,64.43
2022-08-19T11:32:08.548Z,63.95
2022-08-19T11:34:37.885Z,64.21
2022-08-19T11:37:06.680Z,63.65
2022-08-19T11:39:36.440Z,62.70
2022-08-19T11:42:25.991Z,63.42
2022-08-19T11:44:56.052Z,63.32
2022-08-19T11:47:24.993Z,63.03
2022-08-19T11:49:54.098Z,62.97
2022-08-19T11:52:22.527Z,62.54
2022-08-19T11:54:51.238Z,61.85
2022-08-19T11:57:20.688Z,61.50
2022-08-19T11:59:52.349Z,61.92
2022-08-19T12:02:22.645Z,61.19
2022-08-19T12:04:51.210Z,61.04
2022-08-19T12:07:20.087Z,60.04
2022-08-19T12:09:48.698Z,59.99
2022-08-19T12:12:17.981Z,59.81
2022-08-19T12:14:47.519Z,60.39
2022-08-19T12:17:16.195Z,60.94
2022-08-19T12:19:45.963Z,61.38
2022-08-19T12:22:14.429Z,59.89
2022-08-19T12:24:43.469Z,60.03
2022-08-19T12:27:12.860Z,59.34
2022-08-19T12:29:42.411Z,59.57
2022-08-19T12:32:12.188Z,59.69
2022-08-19T12:34:41.413Z,59.31
2022-08-19T12:37:11.992Z,59.48
2022-08-19T12:39:43.003Z,59.62
2022-08-19T12:42:12.525Z,59.30
2022-08-19T12:44:42.730Z,59.22
2022-08-19T12:47:14.367Z,59.32
2022-08-19T12:49:53.481Z,59.48
2022-08-19T12:52:26.595Z,59.29
2022-08-19T12:54:56.552Z,59.75
2022-08-19T12:57:31.941Z,59.68
2022-08-19T13:00:05.101Z,60.13
2022-08-19T13:02:38.302Z,60.15
2022-08-19T13:05:10.203Z,60.13
2022-08-19T13:07:41.190Z,60.13
2022-08-19T13:10:12.753Z,60.25
2022-08-19T13:12:42.244Z,60.37
2022-08-19T13:15:11.996Z,60.27
2022-08-19T13:17:41.147Z,60.23
2022-08-19T13:20:11.497Z,60.50
2022-08-19T13:22:41.953Z,60.37
2022-08-19T13:25:11.253Z,60.88
2022-08-19T13:27:40.689Z,60.42
2022-08-19T13:30:28.902Z,60.20
2022-08-19T13:33:12.885Z,60.59
2022-08-19T13:35:47.290Z,60.34
2022-08-19T13:38:19.476Z,60.52
2022-08-19T13:40:48.677Z,60.38
2022-08-19T13:43:22.878Z,60.45
2022-08-19T13:45:53.545Z,60.61
2022-08-19T13:48:22.024Z,60.65
2022-08-19T13:50:50.479Z,60.50
2022-08-19T13:53:20.456Z,60.41
2022-08-19T13:55:49.585Z,60.13
2022-08-19T13:58:18.301Z,60.02
2022-08-19T14:00:48.480Z,60.14
2022-08-19T14:03:17.189Z,60.36
2022-08-19T14:05:47.004Z,60.71
2022-08-19T14:08:15.536Z,59.90
2022-08-19T14:10:46.272Z,60.25
2022-08-19T14:13:17.323Z,60.10
2022-08-19T14:15:46.291Z,59.73
2022-08-19T14:18:14.876Z,59.78
2022-08-19T14:20:43.871Z,60.00
2022-08-19T14:23:13.219Z,59.63
2022-08-19T14:25:41.636Z,59.65
2022-08-19T14:28:11.976Z,59.60
2022-08-19T14:30:40.626Z,59.58
2022-08-19T14:33:10.246Z,59.43
2022-08-19T14:35:39.123Z,59.46
2022-08-19T14:38:09.019Z,59.16
2022-08-19T14:40:37.477Z,59.38
2022-08-19T14:43:06.553Z,59.51
2022-08-19T14:45:38.413Z,59.56
2022-08-19T14:48:12.550Z,59.44
2022-08-19T14:50:47.991Z,59.71
2022-08-19T14:53:18.318Z,59.66
2022-08-19T14:55:47.866Z,59.77
2022-08-19T14:58:28.339Z,59.26
2022-08-19T15:00:59.504Z,59.70
2022-08-19T15:03:28.129Z,59.63
2022-08-19T15:05:58.605Z,59.32
2022-08-19T15:08:27.929Z,59.11
2022-08-19T15:10:57.619Z,58.83
2022-08-19T15:13:26.958Z,59.07
2022-08-19T15:15:55.774Z,58.91
2022-08-19T15:18:25.797Z,59.02
2022-08-19T15:20:54.331Z,59.07
2022-08-19T15:23:23.322Z,59.03
2022-08-19T15:25:54.370Z,59.27
2022-08-19T15:28:22.846Z,59.16
2022-08-19T15:30:52.119Z,59.42
2022-08-19T15:33:21.463Z,59.30
2022-08-19T15:35:52.398Z,59.06
2022-08-19T15:38:24.379Z,59.30
2022-08-19T15:40:52.997Z,59.31
2022-08-19T15:43:23.166Z,59.32
2022-08-19T15:45:51.706Z,59.19
2022-08-19T15:48:20.117Z,59.66
2022-08-19T15:50:48.524Z,59.31
2022-08-19T15:53:18.270Z,59.10
2022-08-19T15:55:48.538Z,58.98
2022-08-19T15:58:34.297Z,59.03
2022-08-19T16:01:23.530Z,59.12
2022-08-19T16:04:14.817Z,58.97
2022-08-19T16:06:46.572Z,59.04
2022-08-19T16:09:17.489Z,58.83
2022-08-19T16:11:56.153Z,58.64
2022-08-19T16:14:26.258Z,58.53
2022-08-19T16:16:56.698Z,58.53
2022-08-19T16:19:25.748Z,59.11
2022-08-19T16:21:55.740Z,59.06
2022-08-19T16:24:27.324Z,59.13
2022-08-19T16:26:56.788Z,59.09
2022-08-19T16:29:34.257Z,59.37
2022-08-19T16:32:04.241Z,58.91
2022-08-19T16:34:33.878Z,59.17
2022-08-19T16:37:03.220Z,59.34
2022-08-19T16:39:33.082Z,59.05
2022-08-19T16:42:01.570Z,59.00
2022-08-19T16:44:30.370Z,58.76
2022-08-19T16:46:59.671Z,58.81
2022-08-19T16:49:54.289Z,59.03
2022-08-19T16:52:18.125Z,59.35
2022-08-19T16:54:48.105Z,58.98
2022-08-19T16:57:16.900Z,59.19
2022-08-19T16:59:48.879Z,59.04
2022-08-19T17:02:18.457Z,58.93
2022-08-19T17:04:57.571Z,58.67
2022-08-19T17:07:27.699Z,58.78
2022-08-19T17:09:58.140Z,59.18
2022-08-19T17:12:31.790Z,59.09
2022-08-19T17:15:01.099Z,59.25
2022-08-19T17:17:30.020Z,58.82
2022-08-19T17:19:58.999Z,59.00
2022-08-19T17:22:27.622Z,59.23
2022-08-19T17:24:57.950Z,59.76
2022-08-19T17:27:32.190Z,59.68
2022-08-19T17:30:02.522Z,59.41
2022-08-19T17:32:33.321Z,59.60
2022-08-19T17:35:01.928Z,59.70
2022-08-19T17:37:30.414Z,59.44
2022-08-19T17:40:01.399Z,59.39
2022-08-19T17:42:29.860Z,60.31
2022-08-19T17:44:59.414Z,59.65
2022-08-19T17:47:28.358Z,60.39
2022-08-19T17:49:56.982Z,61.03
2022-08-19T17:52:25.997Z,61.69
2022-08-19T17:54:54.443Z,61.59
2022-08-19T17:57:24.363Z,61.56
2022-08-19T17:59:53.378Z,62.47
2022-08-19T18:02:22.402Z,62.47
2022-08-19T18:04:51.025Z,61.19
2022-08-19T18:07:21.627Z,61.83
2022-08-19T18:09:52.782Z,61.48
2022-08-19T18:12:27.491Z,61.14
2022-08-19T18:14:56.048Z,61.30
2022-08-19T18:17:25.998Z,60.82
2022-08-19T18:19:54.756Z,60.84
2022-08-19T18:22:26.182Z,60.77
2022-08-19T18:24:57.471Z,60.87
2022-08-19T18:27:28.378Z,60.99
2022-08-19T18:29:59.103Z,60.74
2022-08-19T18:32:29.207Z,60.55
2022-08-19T18:34:57.720Z,60.33
2022-08-19T18:37:27.357Z,60.48
2022-08-19T18:40:13.188Z,60.88
2022-08-19T18:43:04.972Z,60.68
2022-08-19T18:45:51.429Z,60.52
2022-08-19T18:48:37.406Z,59.93
2022-08-19T18:51:06.033Z,60.52
2022-08-19T18:53:37.733Z,60.57
2022-08-19T18:56:08.044Z,60.47
2022-08-19T18:58:39.272Z,60.63
2022-08-19T19:01:11.930Z,61.05
2022-08-19T19:03:45.223Z,60.76
2022-08-19T19:06:14.432Z,60.76
2022-08-19T19:08:43.385Z,60.54
2022-08-19T19:11:12.093Z,60.74
2022-08-19T19:13:46.310Z,60.48
2022-08-19T19:16:15.589Z,60.57
2022-08-19T19:18:44.608Z,60.71
2022-08-19T19:21:13.087Z,60.33
2022-08-19T19:23:42.366Z,60.42
2022-08-19T19:26:11.689Z,60.47
2022-08-19T19:28:45.766Z,60.68
2022-08-19T19:31:16.983Z,60.83
2022-08-19T19:33:45.897Z,60.36
2022-08-19T19:36:14.572Z,59.49
2022-08-19T19:38:48.499Z,60.63
2022-08-19T19:41:19.754Z,60.49
2022-08-19T19:43:59.872Z,60.31
2022-08-19T19:46:29.009Z,60.52
2022-08-19T19:49:00.094Z,60.12
2022-08-19T19:51:29.493Z,60.04
2022-08-19T19:54:01.865Z,59.92
2022-08-19T19:56:30.390Z,60.08
2022-08-19T19:59:00.184Z,60.21
2022-08-19T20:01:28.704Z,60.46
2022-08-19T20:03:58.860Z,59.77
2022-08-19T20:06:29.132Z,60.02
2022-08-19T20:09:10.571Z,59.65
2022-08-19T20:11:42.902Z,59.09
2022-08-19T20:14:19.031Z,59.14
2022-08-19T20:16:49.216Z,59.15
2022-08-19T20:19:19.674Z,59.02
2022-08-19T20:21:51.405Z,58.85
2022-08-19T20:24:23.643Z,58.66
2022-08-19T20:26:53.546Z,58.64
2022-08-19T20:29:38.996Z,58.95
2022-08-19T20:32:10.406Z,58.65
2022-08-19T20:34:39.210Z,58.34
2022-08-19T20:37:09.408Z,58.20
2022-08-19T20:39:38.628Z,58.23
2022-08-19T20:42:07.361Z,57.93
2022-08-19T20:44:38.535Z,57.87
2022-08-19T20:47:07.939Z,57.89
2022-08-19T20:49:36.752Z,57.88
2022-08-19T20:52:06.253Z,57.86
2022-08-19T20:54:35.131Z,57.94
2022-08-19T20:57:03.821Z,58.20
2022-08-19T20:59:32.503Z,58.07
2022-08-19T21:02:02.445Z,57.60
2022-08-19T21:04:30.961Z,58.23
2022-08-19T21:06:59.581Z,58.22
2022-08-19T21:09:28.127Z,58.09
2022-08-19T21:11:56.556Z,58.35
2022-08-19T21:14:25.080Z,58.46
2022-08-19T21:16:54.038Z,58.14
2022-08-19T21:19:24.322Z,58.15
2022-08-19T21:21:54.099Z,58.31
2022-08-19T21:24:31.501Z,58.12
2022-08-19T21:27:00.506Z,58.22
2022-08-19T21:29:29.094Z,58.38
2022-08-19T21:31:57.893Z,58.06
2022-08-19T21:34:28.407Z,58.58
2022-08-19T21:36:56.990Z,58.45
2022-08-19T21:39:25.502Z,58.45
2022-08-19T21:41:53.957Z,58.20
2022-08-19T21:44:22.541Z,58.60
2022-08-19T21:46:50.958Z,58.25
2022-08-19T21:49:19.604Z,58.28
2022-08-19T21:51:49.779Z,58.23
2022-08-19T21:54:18.269Z,58.47
2022-08-19T21:56:47.370Z,58.17
2022-08-19T21:59:16.899Z,58.33
2022-08-19T22:01:50.491Z,58.21
2022-08-19T22:04:22.582Z,58.17
2022-08-19T22:06:52.479Z,58.25
2022-08-19T22:09:20.966Z,58.28
2022-08-19T22:11:49.490Z,58.32
2022-08-19T22:14:17.958Z,58.26
2022-08-19T22:16:47.273Z,58.54
2022-08-19T22:19:15.749Z,58.13
2022-08-19T22:21:44.229Z,58.13
2022-08-19T22:24:14.012Z,58.38
2022-08-19T22:26:42.450Z,58.13
2022-08-19T22:29:11.424Z,58.16
2022-08-19T22:31:44.306Z,58.08
2022-08-19T22:34:14.990Z,58.30
2022-08-19T22:36:43.482Z,58.03
2022-08-19T22:39:11.955Z,57.99
2022-08-19T22:41:41.852Z,58.13
2022-08-19T22:44:11.383Z,58.07
2022-08-19T22:46:39.819Z,58.19
2022-08-19T22:49:08.238Z,58.34
2022-08-19T22:51:54.291Z,58.17
2022-08-19T22:54:22.709Z,58.15
2022-08-19T22:56:52.778Z,58.04
2022-08-19T22:59:21.403Z,58.50
2022-08-19T23:01:49.873Z,58.46
2022-08-19T23:04:18.333Z,58.23
2022-08-19T23:06:47.780Z,58.61
2022-08-19T23:09:16.850Z,58.35
2022-08-19T23:11:45.993Z,58.42
2022-08-19T23:14:17.573Z,58.27
2022-08-19T23:16:50.698Z,58.55
2022-08-19T23:19:20.682Z,58.38
2022-08-19T23:21:49.260Z,58.41
2022-08-19T23:24:17.776Z,58.11
2022-08-19T23:27:00.282Z,58.67
2022-08-19T23:29:49.594Z,58.49
2022-08-19T23:32:18.621Z,58.15
2022-08-19T23:34:47.488Z,58.66
2022-08-19T23:37:16.024Z,58.26
2022-08-19T23:39:45.150Z,58.45
2022-08-19T23:42:13.987Z,58.18
2022-08-19T23:44:51.119Z,58.22
2022-08-19T23:47:21.821Z,58.35
2022-08-19T23:49:50.627Z,58.44
2022-08-19T23:52:19.345Z,58.37
2022-08-19T23:54:47.913Z,58.49
2022-08-19T23:57:16.508Z,58.72
2022-08-19T23:59:46.334Z,58.43
